createdAt,value
2023-03-05T00:01:11.408Z,17.77
2023-03-05T00:03:38.656Z,23.85
2023-03-05T00:06:05.673Z,18.23
2023-03-05T00:08:32.497Z,16.08
2023-03-05T00:11:04.384Z,18.95
2023-03-05T00:13:31.073Z,16.85
2023-03-05T00:15:57.636Z,16.80
2023-03-05T00:18:24.601Z,18.90
2023-03-05T00:20:51.246Z,19.92
2023-03-05T00:23:17.801Z,19.60
2023-03-05T00:25:45.929Z,18.08
2023-03-05T00:28:13.089Z,18.52
2023-03-05T00:30:40.164Z,16.27
2023-03-05T00:33:07.259Z,14.80
2023-03-05T00:35:43.321Z,16.98
2023-03-05T00:38:11.205Z,13.75
2023-03-05T00:40:39.406Z,16.67
2023-03-05T00:43:06.409Z,14.98
2023-03-05T00:45:33.823Z,17.25
2023-03-05T00:48:00.492Z,18.98
2023-03-05T00:50:27.764Z,15.48
2023-03-05T00:52:54.736Z,17.50
2023-03-05T00:55:21.913Z,15.27
2023-03-05T00:57:48.568Z,16.10
2023-03-05T01:00:16.174Z,14.68
2023-03-05T01:02:42.741Z,15.27
2023-03-05T01:05:13.984Z,16.10
2023-03-05T01:07:40.872Z,15.20
2023-03-05T01:10:08.653Z,13.23
2023-03-05T01:12:35.445Z,17.70
2023-03-05T01:15:02.470Z,16.85
2023-03-05T01:17:29.129Z,15.63
2023-03-05T01:19:55.672Z,16.27
2023-03-05T01:22:22.092Z,14.38
2023-03-05T01:24:48.646Z,15.35
2023-03-05T01:27:15.085Z,15.38
2023-03-05T01:29:41.809Z,16.33
2023-03-05T01:32:08.274Z,16.83
2023-03-05T01:34:37.260Z,15.77
2023-03-05T01:37:04.084Z,18.77
2023-03-05T01:39:30.608Z,21.00
2023-03-05T01:41:57.054Z,16.85
2023-03-05T01:44:29.093Z,15.43
2023-03-05T01:46:56.184Z,16.83
2023-03-05T01:49:27.901Z,12.63
2023-03-05T01:52:03.145Z,12.23
2023-03-05T01:54:35.221Z,12.38
2023-03-05T01:57:08.462Z,12.13
2023-03-05T01:59:37.870Z,12.70
2023-03-05T02:02:07.948Z,13.80
2023-03-05T02:04:41.367Z,12.20
2023-03-05T02:07:08.600Z,13.23
2023-03-05T02:09:38.812Z,11.88
2023-03-05T02:12:05.970Z,12.88
2023-03-05T02:14:33.676Z,12.35
2023-03-05T02:17:00.272Z,11.73
2023-03-05T02:19:27.051Z,11.35
2023-03-05T02:21:54.211Z,11.38
2023-03-05T02:24:37.206Z,14.77
2023-03-05T02:27:05.857Z,12.43
2023-03-05T02:29:33.995Z,8.93
2023-03-05T02:32:01.469Z,9.95
2023-03-05T02:34:27.996Z,11.20
2023-03-05T02:36:55.525Z,10.77
2023-03-05T02:39:23.428Z,12.45
2023-03-05T02:41:49.851Z,10.85
2023-03-05T02:44:16.294Z,9.55
2023-03-05T02:46:42.758Z,10.27
2023-03-05T02:49:09.237Z,13.90
2023-03-05T02:51:35.894Z,9.57
2023-03-05T02:54:02.386Z,10.27
2023-03-05T02:56:29.755Z,10.15
2023-03-05T02:58:56.164Z,12.75
2023-03-05T03:01:22.717Z,11.07
2023-03-05T03:03:49.222Z,10.30
2023-03-05T03:06:15.622Z,11.02
2023-03-05T03:08:42.032Z,10.98
2023-03-05T03:11:12.435Z,9.98
2023-03-05T03:13:39.237Z,10.48
2023-03-05T03:16:12.320Z,11.95
2023-03-05T03:18:39.163Z,9.48
2023-03-05T03:21:06.930Z,8.95
2023-03-05T03:23:34.386Z,9.82
2023-03-05T03:26:00.820Z,9.77
2023-03-05T03:28:27.219Z,11.02
2023-03-05T03:30:53.624Z,10.20
2023-03-05T03:33:20.048Z,10.38
2023-03-05T03:35:46.625Z,8.45
2023-03-05T03:38:13.863Z,9.23
2023-03-05T03:40:41.766Z,9.77
2023-03-05T03:43:08.242Z,9.27
2023-03-05T03:45:34.747Z,7.57
2023-03-05T03:48:01.182Z,11.63
2023-03-05T03:50:27.636Z,9.82
2023-03-05T03:52:54.255Z,9.57
2023-03-05T03:55:20.653Z,14.30
2023-03-05T03:57:47.325Z,9.68
2023-03-05T04:00:14.151Z,8.68
2023-03-05T04:02:41.501Z,7.65
2023-03-05T04:05:08.721Z,10.02
2023-03-05T04:07:35.169Z,8.88
2023-03-05T04:10:04.094Z,11.95
2023-03-05T04:12:31.031Z,9.27
2023-03-05T04:14:57.441Z,10.70
2023-03-05T04:17:23.880Z,8.38
2023-03-05T04:19:50.269Z,8.45
2023-03-05T04:22:18.225Z,7.82
2023-03-05T04:24:44.714Z,6.85
2023-03-05T04:27:12.946Z,6.82
2023-03-05T04:29:39.669Z,7.88
2023-03-05T04:32:06.523Z,8.80
2023-03-05T04:34:33.409Z,8.68
2023-03-05T04:36:59.842Z,8.18
2023-03-05T04:39:26.314Z,9.48
2023-03-05T04:41:52.702Z,7.80
2023-03-05T04:44:19.267Z,7.15
2023-03-05T04:46:46.079Z,8.95
2023-03-05T04:49:12.648Z,6.70
2023-03-05T04:51:39.064Z,7.82
2023-03-05T04:54:05.499Z,9.43
2023-03-05T04:56:31.906Z,6.40
2023-03-05T04:58:58.760Z,7.82
2023-03-05T05:01:25.337Z,6.63
2023-03-05T05:03:52.137Z,6.93
2023-03-05T05:06:18.545Z,5.72
2023-03-05T05:08:44.958Z,8.65
2023-03-05T05:11:14.183Z,7.28
2023-03-05T05:13:40.590Z,8.85
2023-03-05T05:16:08.563Z,7.00
2023-03-05T05:18:35.560Z,8.32
2023-03-05T05:21:02.013Z,7.47
2023-03-05T05:23:28.578Z,5.63
2023-03-05T05:26:00.169Z,8.48
2023-03-05T05:28:27.665Z,6.13
2023-03-05T05:30:54.826Z,7.70
2023-03-05T05:33:21.721Z,8.45
2023-03-05T05:35:48.358Z,9.43
2023-03-05T05:38:14.975Z,19.67
2023-03-05T05:40:41.532Z,12.40
2023-03-05T05:43:08.152Z,6.97
2023-03-05T05:45:37.225Z,7.78
2023-03-05T05:48:03.770Z,7.47
2023-03-05T05:50:30.253Z,7.90
2023-03-05T05:52:56.704Z,7.28
2023-03-05T05:55:23.090Z,8.98
2023-03-05T05:57:49.546Z,6.63
2023-03-05T06:00:16.464Z,8.88
2023-03-05T06:02:43.424Z,7.30
2023-03-05T06:05:12.824Z,7.82
2023-03-05T06:07:39.231Z,7.88
2023-03-05T06:10:06.350Z,7.10
2023-03-05T06:12:32.783Z,9.13
2023-03-05T06:14:59.320Z,9.10
2023-03-05T06:17:30.606Z,6.57
2023-03-05T06:19:58.205Z,8.25
2023-03-05T06:22:24.803Z,7.18
2023-03-05T06:24:51.225Z,7.65
2023-03-05T06:27:17.649Z,6.32
2023-03-05T06:29:44.061Z,6.55
2023-03-05T06:32:10.884Z,8.43
2023-03-05T06:34:37.319Z,9.30
2023-03-05T06:37:03.910Z,8.40
2023-03-05T06:39:31.496Z,17.83
2023-03-05T06:41:58.111Z,13.25
2023-03-05T06:44:25.566Z,19.88
2023-03-05T06:46:52.131Z,30.00
2023-03-05T06:49:18.541Z,15.32
2023-03-05T06:51:44.953Z,29.48
2023-03-05T06:54:14.040Z,10.55
2023-03-05T06:56:43.403Z,8.93
2023-03-05T06:59:11.755Z,8.35
2023-03-05T07:01:38.371Z,7.35
2023-03-05T07:04:05.877Z,9.43
2023-03-05T07:06:34.638Z,7.05
2023-03-05T07:09:02.118Z,9.50
2023-03-05T07:11:29.274Z,10.43
2023-03-05T07:13:55.724Z,11.57
2023-03-05T07:16:27.628Z,15.02
2023-03-05T07:18:54.546Z,11.32
2023-03-05T07:21:22.963Z,11.00
2023-03-05T07:23:49.938Z,9.70
2023-03-05T07:26:16.753Z,11.88
2023-03-05T07:28:43.623Z,10.75
2023-03-05T07:31:21.668Z,9.13
2023-03-05T07:33:49.917Z,9.32
2023-03-05T07:36:16.720Z,15.00
2023-03-05T07:38:43.215Z,12.38
2023-03-05T07:41:12.468Z,11.45
2023-03-05T07:43:39.859Z,10.75
2023-03-05T07:46:08.598Z,10.90
2023-03-05T07:48:35.606Z,11.23
2023-03-05T07:51:07.905Z,14.45
2023-03-05T07:53:34.343Z,17.27
2023-03-05T07:56:00.818Z,15.23
2023-03-05T07:58:27.268Z,12.60
2023-03-05T08:00:53.688Z,12.75
2023-03-05T08:03:20.159Z,15.68
2023-03-05T08:05:47.043Z,14.27
2023-03-05T08:08:13.477Z,14.57
2023-03-05T08:10:39.984Z,9.68
2023-03-05T08:13:06.385Z,16.15
2023-03-05T08:15:32.846Z,12.65
2023-03-05T08:17:59.782Z,13.15
2023-03-05T08:20:26.640Z,13.73
2023-03-05T08:22:53.046Z,15.27
2023-03-05T08:25:19.517Z,13.13
2023-03-05T08:27:47.099Z,18.80
2023-03-05T08:30:21.602Z,13.48
2023-03-05T08:32:51.947Z,13.80
2023-03-05T08:35:18.462Z,14.50
2023-03-05T08:37:44.889Z,15.82
2023-03-05T08:40:11.948Z,10.50
2023-03-05T08:42:38.352Z,15.75
2023-03-05T08:45:05.120Z,13.30
2023-03-05T08:47:31.505Z,17.85
2023-03-05T08:49:58.421Z,15.98
2023-03-05T08:52:25.097Z,13.02
2023-03-05T08:54:51.570Z,14.52
2023-03-05T08:57:18.136Z,15.45
2023-03-05T08:59:44.558Z,15.73
2023-03-05T09:02:13.221Z,10.73
2023-03-05T09:04:40.259Z,11.57
2023-03-05T09:07:07.141Z,13.90
2023-03-05T09:09:33.997Z,12.88
2023-03-05T09:12:01.626Z,14.73
2023-03-05T09:14:28.747Z,15.05
2023-03-05T09:16:56.358Z,14.80
2023-03-05T09:19:23.088Z,14.90
2023-03-05T09:21:50.045Z,14.05
2023-03-05T09:24:16.502Z,13.27
2023-03-05T09:26:42.970Z,11.85
2023-03-05T09:29:09.778Z,10.63
2023-03-05T09:31:36.896Z,11.40
2023-03-05T09:34:04.891Z,14.93
2023-03-05T09:36:32.595Z,11.55
2023-03-05T09:38:59.279Z,13.38
2023-03-05T09:41:50.383Z,10.57
2023-03-05T09:44:43.308Z,9.25
2023-03-05T09:47:43.448Z,10.75
2023-03-05T09:50:22.072Z,9.20
2023-03-05T09:52:55.405Z,9.98
2023-03-05T09:55:40.882Z,11.00
2023-03-05T09:58:22.752Z,10.10
2023-03-05T10:00:53.271Z,8.18
2023-03-05T10:03:28.149Z,10.50
2023-03-05T10:06:07.011Z,9.85
2023-03-05T10:08:46.748Z,9.55
2023-03-05T10:11:29.464Z,12.18
2023-03-05T10:13:55.892Z,8.38
2023-03-05T10:17:01.050Z,9.18
2023-03-05T10:19:49.392Z,9.10
2023-03-05T10:22:20.499Z,6.25
2023-03-05T10:25:20.357Z,7.50
2023-03-05T10:27:54.081Z,7.60
2023-03-05T10:30:33.482Z,9.35
2023-03-05T10:33:21.555Z,7.28
2023-03-05T10:36:22.438Z,5.88
2023-03-05T10:39:08.786Z,7.55
2023-03-05T10:41:56.224Z,5.85
2023-03-05T10:44:37.740Z,6.93
2023-03-05T10:47:16.443Z,6.20
2023-03-05T10:49:50.928Z,6.82
2023-03-05T10:52:39.601Z,7.25
2023-03-05T10:55:17.607Z,5.63
2023-03-05T10:57:44.751Z,6.68
2023-03-05T11:00:17.715Z,5.88
2023-03-05T11:02:58.222Z,5.80
2023-03-05T11:05:42.653Z,6.57
2023-03-05T11:08:30.547Z,5.88
2023-03-05T11:11:11.968Z,6.75
2023-03-05T11:13:52.351Z,5.80
2023-03-05T11:16:26.499Z,4.90
2023-03-05T11:19:14.745Z,4.95
2023-03-05T11:21:43.090Z,4.40
2023-03-05T11:24:18.714Z,6.38
2023-03-05T11:26:57.237Z,4.68
2023-03-05T11:29:26.969Z,4.82
2023-03-05T11:31:53.966Z,6.15
2023-03-05T11:34:20.327Z,8.80
2023-03-05T11:36:56.276Z,6.82
2023-03-05T11:39:25.218Z,4.47
2023-03-05T11:42:09.501Z,5.70
2023-03-05T11:44:45.174Z,5.75
2023-03-05T11:47:37.322Z,4.72
2023-03-05T11:50:15.778Z,4.65
2023-03-05T11:52:47.955Z,5.05
2023-03-05T11:55:19.795Z,5.93
2023-03-05T11:57:58.204Z,4.65
2023-03-05T12:00:29.041Z,5.72
2023-03-05T12:02:58.421Z,5.18
2023-03-05T12:05:25.215Z,5.28
2023-03-05T12:07:55.273Z,5.45
2023-03-05T12:10:24.671Z,4.53
2023-03-05T12:13:20.153Z,5.40
2023-03-05T12:15:54.708Z,5.28
2023-03-05T12:18:33.710Z,7.13
2023-03-05T12:21:06.497Z,6.65
2023-03-05T12:23:52.694Z,6.85
2023-03-05T12:26:59.287Z,5.97
2023-03-05T12:29:39.012Z,4.18
2023-03-05T12:32:33.946Z,5.38
2023-03-05T12:35:22.772Z,5.32
2023-03-05T12:37:49.130Z,5.53
2023-03-05T12:40:15.536Z,5.13
2023-03-05T12:42:41.878Z,4.75
2023-03-05T12:45:17.300Z,5.22
2023-03-05T12:47:56.513Z,7.95
2023-03-05T12:50:29.015Z,7.10
2023-03-05T12:53:04.385Z,6.00
2023-03-05T12:55:39.855Z,4.95
2023-03-05T12:58:14.980Z,4.83
2023-03-05T13:00:52.336Z,4.72
2023-03-05T13:03:30.603Z,9.25
2023-03-05T13:06:00.405Z,5.55
2023-03-05T13:08:38.053Z,6.00
2023-03-05T13:11:21.243Z,6.55
2023-03-05T13:13:48.545Z,13.00
2023-03-05T13:16:19.852Z,6.85
2023-03-05T13:18:48.626Z,6.65
2023-03-05T13:21:20.409Z,6.25
2023-03-05T13:23:58.372Z,6.78
2023-03-05T13:26:29.989Z,6.00
2023-03-05T13:29:22.229Z,7.53
2023-03-05T13:31:54.670Z,5.97
2023-03-05T13:34:26.603Z,6.35
2023-03-05T13:37:00.781Z,7.22
2023-03-05T13:39:34.189Z,6.53
2023-03-05T13:42:03.999Z,6.22
2023-03-05T13:44:31.819Z,11.23
2023-03-05T13:47:17.123Z,6.60
2023-03-05T13:49:44.262Z,11.45
2023-03-05T13:52:11.632Z,6.53
2023-03-05T13:54:38.329Z,6.00
2023-03-05T13:57:08.352Z,7.28
2023-03-05T13:59:38.906Z,6.68
2023-03-05T14:02:18.238Z,6.93
2023-03-05T14:04:46.270Z,9.75
2023-03-05T14:07:33.375Z,5.75
2023-03-05T14:10:00.717Z,5.63
2023-03-05T14:12:38.338Z,7.45
2023-03-05T14:15:21.339Z,4.38
2023-03-05T14:17:48.173Z,6.78
2023-03-05T14:20:23.248Z,6.97
2023-03-05T14:22:53.360Z,6.00
2023-03-05T14:25:34.033Z,5.65
2023-03-05T14:28:06.458Z,8.65
2023-03-05T14:30:35.949Z,11.80
2023-03-05T14:33:03.655Z,8.68
2023-03-05T14:35:30.622Z,7.38
2023-03-05T14:37:59.697Z,9.45
2023-03-05T14:40:35.214Z,8.75
2023-03-05T14:43:06.503Z,8.77
2023-03-05T14:45:36.618Z,7.60
2023-03-05T14:48:05.094Z,7.35
2023-03-05T14:50:37.592Z,5.82
2023-03-05T14:53:09.408Z,6.78
2023-03-05T14:55:38.162Z,6.53
2023-03-05T14:58:12.215Z,6.97
2023-03-05T15:00:38.639Z,6.85
2023-03-05T15:03:05.306Z,8.35
2023-03-05T15:05:32.285Z,8.75
2023-03-05T15:07:59.222Z,8.38
2023-03-05T15:10:26.194Z,6.50
2023-03-05T15:12:53.410Z,5.90
2023-03-05T15:15:20.914Z,6.13
2023-03-05T15:17:51.531Z,6.68
2023-03-05T15:20:21.453Z,7.43
2023-03-05T15:22:48.039Z,7.15
2023-03-05T15:25:14.771Z,7.03
2023-03-05T15:27:41.282Z,7.45
2023-03-05T15:30:09.527Z,10.30
2023-03-05T15:32:36.013Z,7.88
2023-03-05T15:35:02.478Z,8.50
2023-03-05T15:37:28.930Z,8.85
2023-03-05T15:39:55.362Z,7.63
2023-03-05T15:42:21.763Z,9.50
2023-03-05T15:44:48.233Z,10.30
2023-03-05T15:47:14.731Z,10.60
2023-03-05T15:49:41.172Z,8.00
2023-03-05T15:52:07.600Z,12.43
2023-03-05T15:54:35.615Z,10.70
2023-03-05T15:57:02.009Z,11.68
2023-03-05T15:59:28.410Z,12.82
2023-03-05T16:01:54.895Z,11.57
2023-03-05T16:04:21.369Z,7.90
2023-03-05T16:06:49.409Z,9.57
2023-03-05T16:09:17.704Z,11.20
2023-03-05T16:11:47.853Z,11.23
2023-03-05T16:14:17.400Z,12.95
2023-03-05T16:16:44.013Z,9.85
2023-03-05T16:19:15.859Z,11.63
2023-03-05T16:21:42.506Z,10.93
2023-03-05T16:24:09.015Z,10.07
2023-03-05T16:26:39.824Z,10.80
2023-03-05T16:29:06.626Z,9.05
2023-03-05T16:31:35.373Z,10.73
2023-03-05T16:34:02.073Z,14.05
2023-03-05T16:36:30.888Z,10.70
2023-03-05T16:38:59.242Z,7.28
2023-03-05T16:41:26.607Z,6.90
2023-03-05T16:43:56.239Z,8.85
2023-03-05T16:46:27.945Z,8.25
2023-03-05T16:48:54.572Z,9.05
2023-03-05T16:51:21.846Z,10.30
2023-03-05T16:53:48.337Z,9.77
2023-03-05T16:56:15.001Z,11.02
2023-03-05T16:58:41.455Z,11.55
2023-03-05T17:01:13.979Z,10.98
2023-03-05T17:03:41.555Z,8.15
2023-03-05T17:06:13.450Z,7.82
2023-03-05T17:08:41.432Z,9.80
2023-03-05T17:11:08.040Z,10.32
2023-03-05T17:13:34.782Z,16.15
2023-03-05T17:16:01.839Z,11.30
2023-03-05T17:18:28.344Z,9.00
2023-03-05T17:20:54.884Z,7.20
2023-03-05T17:23:21.334Z,9.60
2023-03-05T17:25:47.824Z,11.13
2023-03-05T17:28:14.703Z,14.07
2023-03-05T17:30:41.254Z,10.85
2023-03-05T17:33:07.882Z,9.32
2023-03-05T17:35:35.300Z,13.43
2023-03-05T17:38:07.681Z,12.52
2023-03-05T17:40:34.333Z,11.13
2023-03-05T17:43:00.850Z,15.25
2023-03-05T17:45:27.374Z,38.15
2023-03-05T17:47:53.988Z,69.47
2023-03-05T17:50:20.700Z,28.65
2023-03-05T17:52:47.561Z,14.93
2023-03-05T17:55:15.757Z,11.52
2023-03-05T17:57:44.267Z,11.45
2023-03-05T18:00:17.745Z,8.13
2023-03-05T18:02:44.645Z,10.43
2023-03-05T18:05:12.198Z,10.05
2023-03-05T18:07:38.905Z,9.32
2023-03-05T18:10:07.488Z,8.48
2023-03-05T18:12:34.069Z,8.68
2023-03-05T18:15:00.457Z,8.38
2023-03-05T18:17:26.860Z,8.70
2023-03-05T18:19:53.572Z,9.00
2023-03-05T18:22:19.998Z,10.55
2023-03-05T18:24:46.423Z,7.90
2023-03-05T18:27:13.046Z,7.57
2023-03-05T18:29:39.547Z,9.68
2023-03-05T18:32:06.090Z,8.27
2023-03-05T18:34:32.506Z,9.40
2023-03-05T18:37:00.681Z,7.07
2023-03-05T18:39:33.266Z,8.15
2023-03-05T18:42:00.164Z,7.53
2023-03-05T18:44:26.862Z,10.07
2023-03-05T18:46:53.866Z,7.25
2023-03-05T18:49:20.485Z,6.28
2023-03-05T18:51:47.012Z,9.68
2023-03-05T18:54:13.408Z,8.00
2023-03-05T18:56:39.862Z,9.48
2023-03-05T18:59:06.320Z,12.88
2023-03-05T19:01:32.898Z,15.05
2023-03-05T19:03:59.376Z,19.95
2023-03-05T19:06:26.043Z,21.90
2023-03-05T19:08:57.231Z,10.88
2023-03-05T19:11:23.771Z,14.43
2023-03-05T19:13:51.591Z,10.50
2023-03-05T19:16:29.197Z,10.18
2023-03-05T19:19:05.135Z,9.38
2023-03-05T19:21:32.162Z,8.75
2023-03-05T19:23:58.608Z,8.90
2023-03-05T19:26:25.044Z,7.68
2023-03-05T19:28:51.476Z,8.65
2023-03-05T19:31:17.985Z,9.68
2023-03-05T19:33:44.398Z,8.00
2023-03-05T19:36:12.650Z,8.68
2023-03-05T19:38:40.055Z,10.00
2023-03-05T19:41:10.520Z,8.85
2023-03-05T19:43:37.635Z,10.10
2023-03-05T19:46:07.150Z,8.35
2023-03-05T19:48:34.905Z,9.90
2023-03-05T19:51:03.061Z,9.18
2023-03-05T19:53:29.790Z,9.07
2023-03-05T19:55:56.651Z,7.43
2023-03-05T19:58:23.045Z,8.38
2023-03-05T20:00:49.483Z,9.15
2023-03-05T20:03:15.898Z,8.27
2023-03-05T20:05:43.715Z,8.90
2023-03-05T20:08:10.321Z,10.18
2023-03-05T20:10:36.776Z,7.43
2023-03-05T20:13:03.193Z,8.23
2023-03-05T20:15:29.764Z,7.43
2023-03-05T20:17:57.574Z,11.57
2023-03-05T20:20:24.741Z,10.10
2023-03-05T20:22:51.178Z,9.35
2023-03-05T20:25:21.086Z,8.68
2023-03-05T20:27:47.497Z,7.45
2023-03-05T20:30:15.505Z,8.90
2023-03-05T20:32:42.088Z,9.98
2023-03-05T20:35:13.783Z,11.45
2023-03-05T20:37:49.113Z,8.10
2023-03-05T20:40:16.673Z,8.00
2023-03-05T20:42:43.365Z,10.25
2023-03-05T20:45:10.222Z,7.53
2023-03-05T20:47:45.847Z,8.25
2023-03-05T20:50:14.366Z,9.57
2023-03-05T20:52:41.085Z,11.05
2023-03-05T20:55:08.370Z,10.32
2023-03-05T20:57:34.834Z,7.82
2023-03-05T21:00:03.355Z,8.38
2023-03-05T21:02:30.405Z,8.60
2023-03-05T21:04:56.854Z,9.32
2023-03-05T21:07:23.282Z,8.43
2023-03-05T21:09:49.702Z,8.32
2023-03-05T21:12:16.193Z,9.65
2023-03-05T21:14:42.594Z,9.40
2023-03-05T21:17:09.391Z,9.80
2023-03-05T21:19:38.223Z,9.95
2023-03-05T21:22:04.820Z,8.98
2023-03-05T21:24:42.473Z,8.73
2023-03-05T21:27:09.060Z,8.35
2023-03-05T21:29:35.451Z,8.95
2023-03-05T21:32:02.422Z,8.55
2023-03-05T21:34:28.924Z,8.50
2023-03-05T21:36:55.325Z,8.80
2023-03-05T21:39:21.711Z,8.38
2023-03-05T21:41:48.269Z,8.63
2023-03-05T21:44:17.520Z,7.63
2023-03-05T21:46:43.947Z,7.40
2023-03-05T21:49:10.387Z,7.28
2023-03-05T21:51:48.785Z,10.57
2023-03-05T21:54:15.222Z,8.52
2023-03-05T21:56:41.630Z,8.98
2023-03-05T21:59:08.014Z,9.32
2023-03-05T22:01:34.561Z,9.90
2023-03-05T22:04:01.005Z,9.63
2023-03-05T22:06:27.514Z,7.30
2023-03-05T22:08:53.906Z,9.45
2023-03-05T22:11:21.075Z,9.43
2023-03-05T22:13:47.741Z,7.72
2023-03-05T22:16:25.675Z,9.60
2023-03-05T22:18:53.207Z,8.63
2023-03-05T22:21:27.656Z,7.05
2023-03-05T22:23:56.994Z,7.95
2023-03-05T22:26:25.232Z,8.55
2023-03-05T22:28:51.779Z,8.13
2023-03-05T22:31:26.549Z,10.27
2023-03-05T22:33:53.672Z,7.63
2023-03-05T22:36:20.626Z,7.97
2023-03-05T22:38:47.147Z,8.38
2023-03-05T22:41:16.604Z,8.90
2023-03-05T22:43:43.020Z,9.07
2023-03-05T22:46:10.473Z,8.13
2023-03-05T22:48:36.974Z,8.95
2023-03-05T22:51:03.391Z,7.50
2023-03-05T22:53:30.221Z,8.68
2023-03-05T22:55:56.652Z,8.60
2023-03-05T22:58:23.206Z,6.53
2023-03-05T23:00:49.628Z,8.73
2023-03-05T23:03:16.245Z,9.05
2023-03-05T23:05:42.698Z,9.50
2023-03-05T23:08:09.224Z,10.30
2023-03-05T23:10:35.812Z,9.15
2023-03-05T23:13:02.536Z,10.20
2023-03-05T23:15:32.058Z,7.05
2023-03-05T23:17:59.062Z,6.75
2023-03-05T23:20:29.181Z,9.32
2023-03-05T23:22:56.139Z,7.82
2023-03-05T23:25:24.967Z,7.55
2023-03-05T23:27:51.583Z,8.15
2023-03-05T23:30:26.629Z,6.97
2023-03-05T23:32:54.378Z,7.03
2023-03-05T23:35:25.062Z,6.90
2023-03-05T23:37:52.870Z,7.63
2023-03-05T23:40:25.158Z,6.72
2023-03-05T23:42:52.491Z,7.28
2023-03-05T23:45:21.088Z,9.48
2023-03-05T23:47:48.738Z,9.32
2023-03-05T23:50:20.953Z,9.45
2023-03-05T23:52:48.914Z,6.45
2023-03-05T23:55:19.378Z,6.68
2023-03-05T23:57:46.957Z,8.18
